AirNav   Air Wisconsin Up To $57,000 Bonus
 
 457 users online  

PS29 Sugan Pond Heliport
Solebury, Pennsylvania, USA

GOING TO SOLEBURY?


FAA INFORMATION EFFECTIVE 07 NOVEMBER 2019

Location

FAA Identifier: PS29
Lat/Long: 40-22-30.3800N 074-59-28.6060W
40-22.506333N 074-59.476767W
40.3751056,-74.9912794
(estimated)
Elevation: 320 ft. / 98 m (estimated)
Variation: 12W (1985)
From city: 2 miles W of SOLEBURY, PA
Time zone: UTC -5 (UTC -4 during Daylight Saving Time)
Zip code: 18938

Heliport Operations

Heliport use: Private use. Permission required prior to landing
Activation date: 11/1983
Control tower: no
ARTCC: NEW YORK CENTER
FSS: WILLIAMSPORT FLIGHT SERVICE STATION
Attendance: UNATNDD
Wind indicator: yes
Segmented circle: no

Heliport Communications

WX ASOS at DYL (7 nm SW): 118.875 (215-345-0392)
WX ASOS at TTN (10 nm SE): 126.775 (609-538-8690)
WX AWOS-3 at CKZ (14 nm W): 126.325 (215-257-7291)
WX ASOS at PNE (18 nm S): PHONE 215-677-0146
WX AWOS-3 at UKT (18 nm W): 119.475 (215-538-7610)
WX AWOS-3 at LOM (19 nm SW): 118.925 (215-646-1068)

Nearby radio navigation aids

VOR radial/distance  VOR name  Freq  Var
ARDr342/8.2YARDLEY VOR/DME108.2010W
SBJr232/16.9SOLBERG VOR/DME112.9010W
RBVr305/25.0ROBBINSVILLE VORTAC113.8010W
BWZr208/26.5BROADWAY VOR/DME114.2011W
PTWr080/27.6POTTSTOWN VORTAC116.5009W
GXUr332/28.4MC GUIRE VORTAC110.6012W
FJCr145/29.9ALLENTOWN VORTAC117.5010W
ETXr120/33.9EAST TEXAS VOR/DME110.2009W
STWr199/37.7STILLWATER VOR/DME109.6011W
COLr287/38.2COLTS NECK VOR/DME115.4011W

 
NDB name  Hdg/Dist  Freq  Var  ID
AMBLER054/20.127512WING .. -. --.
CHATHAM242/33.725413WCAT -.-. .- -
LAKEHURST314/36.039611WNEL -. . .-..

Heliport Services

Runway Information

Helipad H1

Dimensions: 100 x 100 ft. / 30 x 30 m
Surface: turf, in fair condition
Latitude: 40-22.506333N
Longitude: 074-59.476767W
Elevation: 320.0 ft.
Traffic pattern: leftleft
Markings: none, in fair condition

Heliport Ownership and Management from official FAA records

Ownership: Privately-owned
Owner: ROBERT I. TOLL
250 GIBRALTER RD.
HORSHAM, PA 19044
Phone (215) 938-8020
Manager: ROBERT I. TOLL
2890 SUGAN RD.
SOLEBURY, PA 18963
Phone (215) 938-8020

Additional Remarks

FOR CD CTC PHILADELPHIA APCH AT 800-354-9884.

Instrument Procedures

There are no published instrument procedures at PS29.

Some nearby airports with instrument procedures:

KDYL - Doylestown Airport (7 nm SW)
KTTN - Trenton Mercer Airport (10 nm SE)
N40 - Sky Manor Airport (11 nm N)
N85 - Alexandria Airport (13 nm N)
KCKZ - Pennridge Airport (14 nm W)
39N - Princeton Airport (15 nm E)
N51 - Solberg-Hunterdon Airport (17 nm NE)
KPNE - Northeast Philadelphia Airport (18 nm S)
KUKT - Quakertown Airport (18 nm W)
KLOM - Wings Field Airport (19 nm SW)
 
Loc | Ops | Rwys | IFR | FBO | Links
Com | Nav | Svcs | Stats | Notes
Area around PS29 (Sugan Pond Heliport)
 
Road maps at: MapQuest Bing Google
 
Aerial photo
No photo
 
Sectional chart

 
Airport distance calculator
Flying to Sugan Pond Heliport? Find the distance to fly.

From to PS29

Sunrise and sunset
Times for 19-Nov-2019
 Local
(UTC-5)
 Zulu
(UTC)
Morning civil twilight06:2211:22
Sunrise06:5211:52
Sunset16:3921:39
Evening civil twilight17:0922:09

Current date and time
Zulu (UTC)  19-Nov-2019 09:07:06
Local (UTC-5)  19-Nov-2019 04:07:06
 
METAR
KDYL 
6nm SW 
190854Z AUTO 00000KT 10SM OVC026 05/03 A2972 RMK AO2 SLP066 T00500028 58003
KTTN 
10nm SE 
ASOS 133.70 609-538-8690
190853Z AUTO 00000KT 5SM BR OVC033 04/04 A2972 RMK AO2 SLP059 T00440039 50001
KCKZ 
14nm W 
190855Z AUTO 00000KT 10SM OVC024 04/04 A2972 RMK AO2
KPNE 
18nm S 
190854Z 27004KT 9SM SCT026 OVC100 06/02 A2975 RMK AO2 SLP073 T00610022 51001
KUKT 
18nm W 
190900Z AUTO 00000KT 8SM BKN023 OVC095 04/03 A2972 RMK A01
KLOM 
19nm SW 
190855Z AUTO 26004KT 10SM BKN022 OVC085 04/03 A2973 RMK AO2 T00430026
TAF
KTTN 
10nm SE 
190726Z 1907/2006 24003KT 6SM BR FEW012 OVC040 TEMPO 1907/1909 4SM BR OVC023 FM191000 VRB03KT P6SM BKN011 FM191300 28003KT P6SM SCT100 FM192200 35004KT P6SM BKN150
KPNE 
18nm S 
190538Z 1906/2006 00000KT P6SM FEW025 BKN035 BKN060 FM190900 VRB02KT P6SM BKN060 FM191400 VRB04KT P6SM SCT100 FM192100 30005KT P6SM BKN200
NOTAMs
Click for the latest NOTAMs
NOTAMs are issued by the DoD/FAA and will open in a separate window not controlled by AirNav.

 

 
 

Would you like to see your business listed on this page?

 If your business provides an interesting product or service to pilots, flight crews, aircraft, or users of the Sugan Pond Heliport, you should consider listing it here.  To start the listing process, click on the button below
 
Add a business
 

Other Pages about Sugan Pond Heliport

Update a link
 
Copyright © AirNav, LLC. All rights reserved. Privacy Policy  Contact